createdAt,value
2019-02-12T00:00:19.800Z,1021.15
2019-02-12T00:01:19.851Z,1021.19
2019-02-12T00:02:19.899Z,1021.22
2019-02-12T00:03:19.950Z,1021.15
2019-02-12T00:04:20.005Z,1021.26
2019-02-12T00:05:20.746Z,1021.21
2019-02-12T00:06:20.099Z,1021.26
2019-02-12T00:07:20.153Z,1021.35
2019-02-12T00:08:20.200Z,1021.36
2019-02-12T00:09:20.249Z,1021.31
2019-02-12T00:10:20.302Z,1021.33
2019-02-12T00:11:20.346Z,1021.38
2019-02-12T00:12:20.397Z,1021.32
2019-02-12T00:13:20.447Z,1021.36
2019-02-12T00:14:20.498Z,1021.41
2019-02-12T00:15:20.545Z,1021.41
2019-02-12T00:16:20.598Z,1021.40
2019-02-12T00:17:20.647Z,1021.39
2019-02-12T00:18:20.695Z,1021.33
2019-02-12T00:19:20.744Z,1021.34
2019-02-12T00:20:20.794Z,1021.34
2019-02-12T00:21:20.845Z,1021.35
2019-02-12T00:22:20.895Z,1021.39
2019-02-12T00:23:20.946Z,1021.34
2019-02-12T00:24:20.997Z,1021.42
2019-02-12T00:25:21.051Z,1021.46
2019-02-12T00:26:21.093Z,1021.46
2019-02-12T00:27:21.145Z,1021.44
2019-02-12T00:28:21.193Z,1021.46
2019-02-12T00:29:21.243Z,1021.44
2019-02-12T00:30:21.291Z,1021.43
2019-02-12T00:31:21.345Z,1021.49
2019-02-12T00:32:21.391Z,1021.46
2019-02-12T00:33:21.441Z,1021.46
2019-02-12T00:34:21.491Z,1021.48
2019-02-12T00:35:21.541Z,1021.46
2019-02-12T00:36:21.593Z,1021.41
2019-02-12T00:37:21.661Z,1021.41
2019-02-12T00:38:21.689Z,1021.44
2019-02-12T00:39:21.741Z,1021.43
2019-02-12T00:40:21.791Z,1021.44
2019-02-12T00:41:21.840Z,1021.49
2019-02-12T00:42:21.893Z,1021.51
2019-02-12T00:43:21.938Z,1021.55
2019-02-12T00:44:21.992Z,1021.55
2019-02-12T00:45:22.040Z,1021.58
2019-02-12T00:46:22.091Z,1021.63
2019-02-12T00:47:22.139Z,1021.60
2019-02-12T00:48:22.188Z,1021.63
2019-02-12T00:49:22.238Z,1021.62
2019-02-12T00:50:22.287Z,1021.60
2019-02-12T00:51:22.348Z,1021.62
2019-02-12T00:52:22.393Z,1021.60
2019-02-12T00:53:22.439Z,1021.64
2019-02-12T00:54:24.132Z,1021.67
2019-02-12T00:55:22.537Z,1021.66
2019-02-12T00:56:22.591Z,1021.72
2019-02-12T00:57:22.638Z,1021.70
2019-02-12T00:58:22.688Z,1021.69
2019-02-12T00:59:22.738Z,1021.72
2019-02-12T01:00:22.798Z,1021.74
2019-02-12T01:01:22.856Z,1021.70
2019-02-12T01:02:22.888Z,1021.68
2019-02-12T01:03:22.940Z,1021.73
2019-02-12T01:04:22.989Z,1021.76
2019-02-12T01:05:23.038Z,1021.77
2019-02-12T01:06:23.086Z,1021.83
2019-02-12T01:07:23.135Z,1021.78
2019-02-12T01:08:23.186Z,1021.79
2019-02-12T01:09:23.237Z,1021.78
2019-02-12T01:10:23.285Z,1021.82
2019-02-12T01:11:23.335Z,1021.80
2019-02-12T01:12:23.384Z,1021.81
2019-02-12T01:13:23.434Z,1021.77
2019-02-12T01:14:23.482Z,1021.80
2019-02-12T01:15:24.795Z,1021.80
2019-02-12T01:16:23.584Z,1021.77
2019-02-12T01:17:23.634Z,1021.83
2019-02-12T01:18:23.681Z,1021.85
2019-02-12T01:19:23.733Z,1021.88
2019-02-12T01:20:23.781Z,1021.86
2019-02-12T01:21:26.249Z,1021.88
2019-02-12T01:22:23.885Z,1021.84
2019-02-12T01:23:23.982Z,1021.84
2019-02-12T01:24:23.982Z,1021.86
2019-02-12T01:25:24.030Z,1021.86
2019-02-12T01:26:24.082Z,1021.94
2019-02-12T01:27:24.128Z,1021.90
2019-02-12T01:28:24.193Z,1021.92
2019-02-12T01:29:24.228Z,1021.99
2019-02-12T01:30:24.276Z,1021.95
2019-02-12T01:31:24.328Z,1021.99
2019-02-12T01:32:24.378Z,1022.01
2019-02-12T01:33:24.426Z,1021.98
2019-02-12T01:34:24.477Z,1021.96
2019-02-12T01:35:24.529Z,1021.97
2019-02-12T01:36:24.575Z,1021.97
2019-02-12T01:37:24.624Z,1021.93
2019-02-12T01:38:24.674Z,1021.94
2019-02-12T01:39:24.722Z,1021.95
2019-02-12T01:40:24.772Z,1021.98
2019-02-12T01:41:24.822Z,1022.03
2019-02-12T01:42:24.873Z,1022.06
2019-02-12T01:43:24.921Z,1022.10
2019-02-12T01:44:24.972Z,1022.10
2019-02-12T01:45:25.022Z,1022.08
2019-02-12T01:46:25.069Z,1022.15
2019-02-12T01:47:25.123Z,1022.12
2019-02-12T01:48:25.169Z,1022.16
2019-02-12T01:49:25.219Z,1022.14
2019-02-12T01:50:25.268Z,1022.21
2019-02-12T01:51:25.329Z,1022.24
2019-02-12T01:52:25.366Z,1022.21
2019-02-12T01:53:25.416Z,1022.26
2019-02-12T01:54:25.465Z,1022.24
2019-02-12T01:55:25.515Z,1022.24
2019-02-12T01:56:25.563Z,1022.29
2019-02-12T01:57:25.613Z,1022.29
2019-02-12T01:58:25.663Z,1022.24
2019-02-12T01:59:25.812Z,1022.21
2019-02-12T02:00:26.465Z,1022.21
2019-02-12T02:01:26.379Z,1022.19
2019-02-12T02:02:26.440Z,1022.21
2019-02-12T02:03:26.604Z,1022.26
2019-02-12T02:04:26.536Z,1022.26
2019-02-12T02:05:30.206Z,1022.31
2019-02-12T02:06:26.057Z,1022.29
2019-02-12T02:07:26.753Z,1022.26
2019-02-12T02:08:26.158Z,1022.31
2019-02-12T02:09:26.730Z,1022.32
2019-02-12T02:10:26.833Z,1022.29
2019-02-12T02:11:26.887Z,1022.27
2019-02-12T02:12:26.355Z,1022.30
2019-02-12T02:13:26.403Z,1022.27
2019-02-12T02:14:26.453Z,1022.30
2019-02-12T02:15:26.503Z,1022.25
2019-02-12T02:16:26.551Z,1022.27
2019-02-12T02:17:26.602Z,1022.29
2019-02-12T02:18:26.650Z,1022.29
2019-02-12T02:19:26.700Z,1022.29
2019-02-12T02:20:26.750Z,1022.25
2019-02-12T02:21:26.801Z,1022.21
2019-02-12T02:22:26.849Z,1022.21
2019-02-12T02:23:26.897Z,1022.20
2019-02-12T02:24:26.949Z,1022.23
2019-02-12T02:25:26.998Z,1022.21
2019-02-12T02:26:27.046Z,1022.22
2019-02-12T02:27:27.095Z,1022.19
2019-02-12T02:28:27.147Z,1022.22
2019-02-12T02:29:27.195Z,1022.17
2019-02-12T02:30:27.246Z,1022.13
2019-02-12T02:31:27.293Z,1022.13
2019-02-12T02:32:27.345Z,1022.12
2019-02-12T02:33:27.399Z,1022.16
2019-02-12T02:34:27.443Z,1022.13
2019-02-12T02:35:27.493Z,1022.15
2019-02-12T02:36:27.544Z,1022.12
2019-02-12T02:37:27.592Z,1022.10
2019-02-12T02:38:27.644Z,1022.08
2019-02-12T02:39:27.692Z,1022.08
2019-02-12T02:40:27.761Z,1022.09
2019-02-12T02:41:27.811Z,1022.10
2019-02-12T02:42:27.842Z,1022.08
2019-02-12T02:43:27.898Z,1022.09
2019-02-12T02:44:27.942Z,1022.19
2019-02-12T02:45:27.990Z,1022.18
2019-02-12T02:46:28.038Z,1022.15
2019-02-12T02:47:28.088Z,1022.17
2019-02-12T02:48:28.138Z,1022.11
2019-02-12T02:49:28.196Z,1022.10
2019-02-12T02:50:28.237Z,1022.13
2019-02-12T02:51:28.285Z,1022.11
2019-02-12T02:52:28.336Z,1022.11
2019-02-12T02:53:28.385Z,1022.16
2019-02-12T02:54:28.435Z,1022.12
2019-02-12T02:55:28.486Z,1022.15
2019-02-12T02:56:28.534Z,1022.18
2019-02-12T02:57:28.584Z,1022.21
2019-02-12T02:58:28.642Z,1022.22
2019-02-12T02:59:28.682Z,1022.20
2019-02-12T03:00:28.731Z,1022.20
2019-02-12T03:01:28.781Z,1022.21
2019-02-12T03:02:28.832Z,1022.18
2019-02-12T03:03:28.880Z,1022.19
2019-02-12T03:04:28.931Z,1022.23
2019-02-12T03:05:28.980Z,1022.24
2019-02-12T03:06:29.029Z,1022.24
2019-02-12T03:07:29.078Z,1022.28
2019-02-12T03:08:29.129Z,1022.25
2019-02-12T03:09:29.178Z,1022.28
2019-02-12T03:10:29.226Z,1022.28
2019-02-12T03:11:29.276Z,1022.29
2019-02-12T03:12:29.328Z,1022.33
2019-02-12T03:13:29.376Z,1022.34
2019-02-12T03:14:29.425Z,1022.33
2019-02-12T03:15:29.477Z,1022.30
2019-02-12T03:16:30.155Z,1022.27
2019-02-12T03:17:29.575Z,1022.31
2019-02-12T03:18:29.624Z,1022.31
2019-02-12T03:19:29.672Z,1022.30
2019-02-12T03:20:29.722Z,1022.31
2019-02-12T03:21:29.774Z,1022.28
2019-02-12T03:22:29.821Z,1022.30
2019-02-12T03:23:29.871Z,1022.35
2019-02-12T03:24:29.922Z,1022.31
2019-02-12T03:25:29.977Z,1022.29
2019-02-12T03:26:30.019Z,1022.31
2019-02-12T03:27:30.069Z,1022.29
2019-02-12T03:28:30.120Z,1022.30
2019-02-12T03:29:30.173Z,1022.23
2019-02-12T03:30:30.228Z,1022.21
2019-02-12T03:31:30.267Z,1022.26
2019-02-12T03:32:30.319Z,1022.22
2019-02-12T03:33:30.367Z,1022.24
2019-02-12T03:34:30.414Z,1022.29
2019-02-12T03:35:30.469Z,1022.30
2019-02-12T03:36:30.515Z,1022.33
2019-02-12T03:37:30.563Z,1022.34
2019-02-12T03:38:30.612Z,1022.32
2019-02-12T03:39:30.662Z,1022.32
2019-02-12T03:40:30.711Z,1022.34
2019-02-12T03:41:30.762Z,1022.34
2019-02-12T03:42:30.811Z,1022.40
2019-02-12T03:43:30.859Z,1022.40
2019-02-12T03:44:30.907Z,1022.39
2019-02-12T03:45:30.958Z,1022.42
2019-02-12T03:46:31.022Z,1022.37
2019-02-12T03:47:31.054Z,1022.36
2019-02-12T03:48:31.106Z,1022.40
2019-02-12T03:49:31.157Z,1022.38
2019-02-12T03:50:31.207Z,1022.37
2019-02-12T03:51:31.253Z,1022.38
2019-02-12T03:52:31.304Z,1022.40
2019-02-12T03:53:31.351Z,1022.44
2019-02-12T03:54:31.414Z,1022.41
2019-02-12T03:55:31.449Z,1022.37
2019-02-12T03:56:31.497Z,1022.35
2019-02-12T03:57:31.562Z,1022.43
2019-02-12T03:58:31.596Z,1022.43
2019-02-12T03:59:31.645Z,1022.45
2019-02-12T04:00:31.696Z,1022.47
2019-02-12T04:01:31.745Z,1022.49
2019-02-12T04:02:32.149Z,1022.46
2019-02-12T04:03:31.843Z,1022.48
2019-02-12T04:04:31.890Z,1022.47
2019-02-12T04:05:31.944Z,1022.49
2019-02-12T04:06:31.994Z,1022.53
2019-02-12T04:07:32.042Z,1022.62
2019-02-12T04:08:32.089Z,1022.58
2019-02-12T04:09:32.137Z,1022.63
2019-02-12T04:10:32.187Z,1022.67
2019-02-12T04:11:32.235Z,1022.72
2019-02-12T04:12:32.283Z,1022.78
2019-02-12T04:13:32.332Z,1022.82
2019-02-12T04:14:32.415Z,1022.78
2019-02-12T04:15:32.432Z,1022.77
2019-02-12T04:16:32.484Z,1022.74
2019-02-12T04:17:32.529Z,1022.82
2019-02-12T04:18:32.578Z,1022.83
2019-02-12T04:19:32.644Z,1022.83
2019-02-12T04:20:32.681Z,1022.85
2019-02-12T04:21:32.730Z,1022.84
2019-02-12T04:22:32.776Z,1022.83
2019-02-12T04:23:32.822Z,1022.81
2019-02-12T04:24:32.873Z,1022.79
2019-02-12T04:25:32.926Z,1022.84
2019-02-12T04:26:32.970Z,1022.87
2019-02-12T04:27:33.019Z,1022.84
2019-02-12T04:28:33.070Z,1022.85
2019-02-12T04:29:33.119Z,1022.77
2019-02-12T04:30:33.169Z,1022.79
2019-02-12T04:31:33.216Z,1022.77
2019-02-12T04:32:33.312Z,1022.79
2019-02-12T04:33:33.316Z,1022.84
2019-02-12T04:34:33.374Z,1022.82
2019-02-12T04:35:33.413Z,1022.83
2019-02-12T04:36:33.499Z,1022.86
2019-02-12T04:37:33.513Z,1022.84
2019-02-12T04:38:33.559Z,1022.85
2019-02-12T04:39:33.608Z,1022.84
2019-02-12T04:40:33.657Z,1022.84
2019-02-12T04:41:33.707Z,1022.86
2019-02-12T04:42:33.755Z,1022.84
2019-02-12T04:43:33.804Z,1022.78
2019-02-12T04:44:33.855Z,1022.80
2019-02-12T04:45:34.546Z,1022.81
2019-02-12T04:46:33.951Z,1022.81
2019-02-12T04:47:34.003Z,1022.80
2019-02-12T04:48:34.053Z,1022.83
2019-02-12T04:49:34.100Z,1022.81
2019-02-12T04:50:34.147Z,1022.76
2019-02-12T04:51:34.196Z,1022.75
2019-02-12T04:52:34.246Z,1022.80
2019-02-12T04:53:34.295Z,1022.80
2019-02-12T04:54:34.343Z,1022.80
2019-02-12T04:55:34.394Z,1022.79
2019-02-12T04:56:34.441Z,1022.81
2019-02-12T04:57:34.492Z,1022.82
2019-02-12T04:58:34.542Z,1022.82
2019-02-12T04:59:34.589Z,1022.76
2019-02-12T05:00:35.142Z,1022.73
2019-02-12T05:01:35.189Z,1022.73
2019-02-12T05:02:35.272Z,1022.75
2019-02-12T05:03:34.827Z,1022.80
2019-02-12T05:04:34.834Z,1022.77
2019-02-12T05:05:34.884Z,1022.74
2019-02-12T05:06:34.930Z,1022.75
2019-02-12T05:07:34.982Z,1022.79
2019-02-12T05:08:35.029Z,1022.77
2019-02-12T05:09:35.079Z,1022.74
2019-02-12T05:10:35.127Z,1022.75
2019-02-12T05:11:35.176Z,1022.74
2019-02-12T05:12:35.226Z,1022.81
2019-02-12T05:13:35.274Z,1022.81
2019-02-12T05:14:35.322Z,1022.80
2019-02-12T05:15:35.373Z,1022.78
2019-02-12T05:16:35.443Z,1022.79
2019-02-12T05:17:35.469Z,1022.79
2019-02-12T05:18:35.521Z,1022.79
2019-02-12T05:19:35.567Z,1022.83
2019-02-12T05:20:35.624Z,1022.81
2019-02-12T05:21:35.666Z,1022.80
2019-02-12T05:22:43.131Z,1022.77
2019-02-12T05:23:35.764Z,1022.77
2019-02-12T05:24:35.813Z,1022.81
2019-02-12T05:25:35.862Z,1022.75
2019-02-12T05:26:35.910Z,1022.78
2019-02-12T05:27:35.959Z,1022.71
2019-02-12T05:28:36.009Z,1022.77
2019-02-12T05:29:36.678Z,1022.76
2019-02-12T05:30:36.104Z,1022.77
2019-02-12T05:31:36.154Z,1022.74
2019-02-12T05:32:36.213Z,1022.76
2019-02-12T05:33:36.253Z,1022.75
2019-02-12T05:34:36.301Z,1022.77
2019-02-12T05:35:36.349Z,1022.79
2019-02-12T05:36:36.398Z,1022.81
2019-02-12T05:37:36.447Z,1022.80
2019-02-12T05:38:36.497Z,1022.86
2019-02-12T05:39:36.547Z,1022.88
2019-02-12T05:40:36.594Z,1022.92
2019-02-12T05:41:36.660Z,1022.94
2019-02-12T05:42:36.701Z,1022.94
2019-02-12T05:43:36.746Z,1022.98
2019-02-12T05:44:36.789Z,1022.97
2019-02-12T05:45:36.840Z,1022.96
2019-02-12T05:46:36.894Z,1022.95
2019-02-12T05:47:36.936Z,1022.98
2019-02-12T05:48:36.985Z,1022.95
2019-02-12T05:49:37.035Z,1022.92
2019-02-12T05:50:37.083Z,1022.95
2019-02-12T05:51:37.139Z,1022.90
2019-02-12T05:52:37.181Z,1022.91
2019-02-12T05:53:37.232Z,1022.90
2019-02-12T05:54:37.279Z,1022.90
2019-02-12T05:55:37.327Z,1022.91
2019-02-12T05:56:37.378Z,1022.91
2019-02-12T05:57:37.425Z,1022.87
2019-02-12T05:58:37.473Z,1022.86
2019-02-12T05:59:37.523Z,1022.87
2019-02-12T06:00:37.572Z,1022.89
2019-02-12T06:01:37.619Z,1022.94
2019-02-12T06:02:37.670Z,1022.93
2019-02-12T06:03:37.718Z,1022.91
2019-02-12T06:04:37.770Z,1022.93
2019-02-12T06:05:37.818Z,1022.96
2019-02-12T06:06:37.869Z,1023.02
2019-02-12T06:07:37.914Z,1023.04
2019-02-12T06:08:37.965Z,1023.04
2019-02-12T06:09:38.012Z,1023.06
2019-02-12T06:10:38.062Z,1023.03
2019-02-12T06:11:38.110Z,1023.09
2019-02-12T06:12:38.157Z,1023.04
2019-02-12T06:13:38.207Z,1023.04
2019-02-12T06:14:38.255Z,1023.11
2019-02-12T06:15:38.305Z,1023.15
2019-02-12T06:16:38.355Z,1023.17
2019-02-12T06:17:38.402Z,1023.18
2019-02-12T06:18:38.453Z,1023.16
2019-02-12T06:19:38.499Z,1023.16
2019-02-12T06:20:38.550Z,1023.15
2019-02-12T06:21:38.597Z,1023.17
2019-02-12T06:22:38.645Z,1023.13
2019-02-12T06:23:38.695Z,1023.16
2019-02-12T06:24:38.745Z,1023.16
2019-02-12T06:25:38.792Z,1023.23
2019-02-12T06:26:38.840Z,1023.23
2019-02-12T06:27:38.891Z,1023.21
2019-02-12T06:28:38.938Z,1023.28
2019-02-12T06:29:39.037Z,1023.26
2019-02-12T06:30:39.071Z,1023.22
2019-02-12T06:31:39.087Z,1023.23
2019-02-12T06:32:39.134Z,1023.23
2019-02-12T06:33:39.183Z,1023.23
2019-02-12T06:34:39.232Z,1023.21
2019-02-12T06:35:39.279Z,1023.21
2019-02-12T06:36:39.328Z,1023.19
2019-02-12T06:37:39.379Z,1023.20
2019-02-12T06:38:39.439Z,1023.24
2019-02-12T06:39:39.474Z,1023.21
2019-02-12T06:40:39.523Z,1023.20
2019-02-12T06:41:40.556Z,1023.15
2019-02-12T06:42:39.932Z,1023.18
2019-02-12T06:43:39.670Z,1023.15
2019-02-12T06:44:39.719Z,1023.18
2019-02-12T06:45:39.769Z,1023.13
2019-02-12T06:46:39.824Z,1023.17
2019-02-12T06:47:39.864Z,1023.17
2019-02-12T06:48:39.914Z,1023.16
2019-02-12T06:49:39.963Z,1023.17
2019-02-12T06:50:40.010Z,1023.22
2019-02-12T06:51:40.062Z,1023.21
2019-02-12T06:52:40.108Z,1023.23
2019-02-12T06:53:40.158Z,1023.19
2019-02-12T06:54:40.206Z,1023.24
2019-02-12T06:55:40.257Z,1023.28
2019-02-12T06:56:40.304Z,1023.26
2019-02-12T06:57:40.357Z,1023.34
2019-02-12T06:58:40.402Z,1023.35
2019-02-12T06:59:40.453Z,1023.38
2019-02-12T07:00:40.513Z,1023.41
2019-02-12T07:01:40.549Z,1023.42
2019-02-12T07:02:41.887Z,1023.43
2019-02-12T07:03:40.647Z,1023.44
2019-02-12T07:04:40.695Z,1023.46
2019-02-12T07:05:40.745Z,1023.41
2019-02-12T07:06:40.794Z,1023.44
2019-02-12T07:07:40.843Z,1023.43
2019-02-12T07:08:40.892Z,1023.41
2019-02-12T07:09:40.954Z,1023.40
2019-02-12T07:10:40.989Z,1023.38
2019-02-12T07:11:41.039Z,1023.40
2019-02-12T07:12:41.099Z,1023.41
2019-02-12T07:13:41.138Z,1023.38
2019-02-12T07:14:41.764Z,1023.40
2019-02-12T07:15:41.234Z,1023.37
2019-02-12T07:16:41.288Z,1023.41
2019-02-12T07:17:41.334Z,1023.39
2019-02-12T07:18:41.381Z,1023.42
2019-02-12T07:19:41.433Z,1023.40
2019-02-12T07:20:41.481Z,1023.42
2019-02-12T07:21:41.529Z,1023.43
2019-02-12T07:22:41.578Z,1023.46
2019-02-12T07:23:41.627Z,1023.49
2019-02-12T07:24:41.681Z,1023.52
2019-02-12T07:25:41.740Z,1023.55
2019-02-12T07:26:41.773Z,1023.52
2019-02-12T07:27:41.826Z,1023.55
2019-02-12T07:28:41.872Z,1023.55
2019-02-12T07:29:41.924Z,1023.54
2019-02-12T07:30:42.070Z,1023.54
2019-02-12T07:31:42.028Z,1023.55
2019-02-12T07:32:42.069Z,1023.56
2019-02-12T07:33:42.119Z,1023.58
2019-02-12T07:34:42.170Z,1023.62
2019-02-12T07:35:42.216Z,1023.62
2019-02-12T07:36:42.269Z,1023.64
2019-02-12T07:37:42.317Z,1023.62
2019-02-12T07:38:42.674Z,1023.65
2019-02-12T07:39:42.753Z,1023.63
2019-02-12T07:40:42.513Z,1023.62
2019-02-12T07:41:42.511Z,1023.64
2019-02-12T07:42:42.560Z,1023.62
2019-02-12T07:43:42.612Z,1023.62
2019-02-12T07:44:43.027Z,1023.65
2019-02-12T07:45:42.750Z,1023.65
2019-02-12T07:46:42.760Z,1023.66
2019-02-12T07:47:43.457Z,1023.67
2019-02-12T07:48:42.867Z,1023.68
2019-02-12T07:49:42.909Z,1023.69
2019-02-12T07:50:42.969Z,1023.73
2019-02-12T07:51:43.006Z,1023.74
2019-02-12T07:52:43.056Z,1023.77
2019-02-12T07:53:43.107Z,1023.82
2019-02-12T07:54:43.156Z,1023.85
2019-02-12T07:55:43.878Z,1023.90
2019-02-12T07:56:43.256Z,1023.90
2019-02-12T07:57:43.304Z,1023.98
2019-02-12T07:58:43.354Z,1023.97
2019-02-12T07:59:43.407Z,1023.94
2019-02-12T08:00:43.453Z,1023.94
2019-02-12T08:01:43.508Z,1023.93
2019-02-12T08:02:43.554Z,1023.97
2019-02-12T08:03:43.604Z,1023.99
2019-02-12T08:04:43.654Z,1023.98
2019-02-12T08:05:43.703Z,1023.98
2019-02-12T08:06:43.752Z,1023.98
2019-02-12T08:07:43.802Z,1023.99
2019-02-12T08:08:43.852Z,1023.97
2019-02-12T08:09:43.904Z,1024.00
2019-02-12T08:10:43.951Z,1024.02
2019-02-12T08:11:44.002Z,1024.01
2019-02-12T08:12:44.057Z,1024.07
2019-02-12T08:13:44.103Z,1024.09
2019-02-12T08:14:44.165Z,1024.12
2019-02-12T08:15:44.203Z,1024.11
2019-02-12T08:16:44.253Z,1024.12
2019-02-12T08:17:44.306Z,1024.15
2019-02-12T08:18:44.356Z,1024.13
2019-02-12T08:19:44.406Z,1024.20
2019-02-12T08:20:44.454Z,1024.16
2019-02-12T08:21:44.503Z,1024.17
2019-02-12T08:22:44.554Z,1024.23
2019-02-12T08:23:44.926Z,1024.24
2019-02-12T08:24:44.968Z,1024.30
2019-02-12T08:25:44.710Z,1024.26
2019-02-12T08:26:45.153Z,1024.22
2019-02-12T08:27:45.138Z,1024.24
2019-02-12T08:28:45.269Z,1024.21
2019-02-12T08:29:45.289Z,1024.27
2019-02-12T08:30:44.959Z,1024.30
2019-02-12T08:31:45.441Z,1024.30
2019-02-12T08:32:45.057Z,1024.31
2019-02-12T08:33:45.106Z,1024.31
2019-02-12T08:34:45.162Z,1024.30
2019-02-12T08:35:45.219Z,1024.36
2019-02-12T08:36:45.261Z,1024.41
2019-02-12T08:37:45.310Z,1024.45
2019-02-12T08:38:45.371Z,1024.47
2019-02-12T08:39:45.411Z,1024.44
2019-02-12T08:40:45.468Z,1024.46
2019-02-12T08:41:45.541Z,1024.44
2019-02-12T08:42:45.565Z,1024.44
2019-02-12T08:43:45.614Z,1024.46
2019-02-12T08:44:45.665Z,1024.49
2019-02-12T08:45:45.719Z,1024.49
2019-02-12T08:46:45.772Z,1024.51
2019-02-12T08:47:45.822Z,1024.56
2019-02-12T08:48:45.874Z,1024.53
2019-02-12T08:49:45.921Z,1024.50
2019-02-12T08:50:45.982Z,1024.53
2019-02-12T08:51:46.023Z,1024.54
2019-02-12T08:52:46.075Z,1024.55
2019-02-12T08:53:50.435Z,1024.60
2019-02-12T08:54:46.176Z,1024.57
2019-02-12T08:55:46.229Z,1024.61
2019-02-12T08:56:46.324Z,1024.56
2019-02-12T08:57:46.329Z,1024.55
2019-02-12T08:58:46.403Z,1024.56
2019-02-12T08:59:46.431Z,1024.51
2019-02-12T09:00:47.475Z,1024.52
2019-02-12T09:01:46.534Z,1024.55
2019-02-12T09:02:46.585Z,1024.55
2019-02-12T09:03:46.636Z,1024.56
2019-02-12T09:04:46.688Z,1024.58
2019-02-12T09:05:46.739Z,1024.59
2019-02-12T09:06:46.790Z,1024.60
2019-02-12T09:07:46.843Z,1024.59
2019-02-12T09:08:46.893Z,1024.63
2019-02-12T09:09:46.944Z,1024.59
2019-02-12T09:10:46.998Z,1024.58
2019-02-12T09:11:47.048Z,1024.58
2019-02-12T09:12:47.102Z,1024.60
2019-02-12T09:13:47.151Z,1024.59
2019-02-12T09:14:47.205Z,1024.63
2019-02-12T09:15:47.252Z,1024.63
2019-02-12T09:16:47.305Z,1024.71
2019-02-12T09:17:47.355Z,1024.67
2019-02-12T09:18:47.408Z,1024.64
2019-02-12T09:19:47.460Z,1024.63
2019-02-12T09:20:47.510Z,1024.62
2019-02-12T09:21:47.562Z,1024.66
2019-02-12T09:22:47.613Z,1024.64
2019-02-12T09:23:47.667Z,1024.66
2019-02-12T09:24:47.719Z,1024.71
2019-02-12T09:25:47.773Z,1024.71
2019-02-12T09:26:47.818Z,1024.72
2019-02-12T09:27:47.871Z,1024.73
2019-02-12T09:28:47.923Z,1024.71
2019-02-12T09:29:47.974Z,1024.72
2019-02-12T09:30:48.025Z,1024.75
2019-02-12T09:31:48.078Z,1024.72
2019-02-12T09:32:48.129Z,1024.69
2019-02-12T09:33:48.187Z,1024.70
2019-02-12T09:34:48.233Z,1024.74
2019-02-12T09:35:48.285Z,1024.77
2019-02-12T09:36:48.338Z,1024.79
2019-02-12T09:37:48.389Z,1024.79
2019-02-12T09:38:48.439Z,1024.79
2019-02-12T09:39:48.492Z,1024.81
2019-02-12T09:40:48.548Z,1024.83
2019-02-12T09:41:48.598Z,1024.85
2019-02-12T09:42:48.651Z,1024.85
2019-02-12T09:43:48.702Z,1024.90
2019-02-12T09:44:48.752Z,1024.97
2019-02-12T09:45:48.806Z,1024.92
2019-02-12T09:46:48.859Z,1024.94
2019-02-12T09:47:49.544Z,1024.89
2019-02-12T09:48:48.971Z,1024.93
2019-02-12T09:49:49.015Z,1024.95
2019-02-12T09:50:49.066Z,1024.96
2019-02-12T09:51:49.124Z,1024.93
2019-02-12T09:52:49.179Z,1024.93
2019-02-12T09:53:49.229Z,1024.86
2019-02-12T09:54:49.290Z,1024.85
2019-02-12T09:55:49.331Z,1024.91
2019-02-12T09:56:49.386Z,1024.89
2019-02-12T09:57:49.439Z,1024.86
2019-02-12T09:58:49.490Z,1024.87
2019-02-12T09:59:49.543Z,1024.79
2019-02-12T10:00:49.598Z,1024.81
2019-02-12T10:01:49.651Z,1024.80
2019-02-12T10:02:49.707Z,1024.80
2019-02-12T10:03:49.756Z,1024.86
2019-02-12T10:04:49.811Z,1024.86
2019-02-12T10:05:49.865Z,1024.86
2019-02-12T10:06:49.918Z,1024.86
2019-02-12T10:07:50.067Z,1024.79
2019-02-12T10:08:50.032Z,1024.87
2019-02-12T10:09:50.079Z,1024.85
2019-02-12T10:10:50.134Z,1024.85
2019-02-12T10:11:50.187Z,1024.89
2019-02-12T10:12:50.242Z,1024.87
2019-02-12T10:13:50.298Z,1024.90
2019-02-12T10:14:50.363Z,1024.93
2019-02-12T10:15:50.407Z,1024.92
2019-02-12T10:16:50.457Z,1024.93
2019-02-12T10:17:50.511Z,1024.95
2019-02-12T10:18:50.566Z,1024.97
2019-02-12T10:19:50.617Z,1024.99
2019-02-12T10:20:50.671Z,1025.02
2019-02-12T10:21:50.726Z,1025.04
2019-02-12T10:22:50.783Z,1025.02
2019-02-12T10:23:50.834Z,1025.03
2019-02-12T10:24:50.937Z,1025.05
2019-02-12T10:25:50.963Z,1025.06
2019-02-12T10:26:50.996Z,1025.05
2019-02-12T10:27:51.051Z,1025.06
2019-02-12T10:28:51.104Z,1025.07
2019-02-12T10:29:51.159Z,1025.08
2019-02-12T10:30:51.211Z,1025.08
2019-02-12T10:31:51.265Z,1025.11
2019-02-12T10:32:51.320Z,1025.16
2019-02-12T10:33:51.375Z,1025.19
2019-02-12T10:34:51.427Z,1025.19
2019-02-12T10:35:51.482Z,1025.12
2019-02-12T10:36:51.537Z,1025.13
2019-02-12T10:37:51.595Z,1025.15
2019-02-12T10:38:51.643Z,1025.13
2019-02-12T10:39:51.700Z,1025.18
2019-02-12T10:40:51.753Z,1025.16
2019-02-12T10:41:51.809Z,1025.16
2019-02-12T10:42:51.860Z,1025.16
2019-02-12T10:43:51.913Z,1025.15
2019-02-12T10:44:51.969Z,1025.14
2019-02-12T10:45:52.024Z,1025.12
2019-02-12T10:46:52.078Z,1025.14
2019-02-12T10:47:52.130Z,1025.09
2019-02-12T10:48:52.840Z,1025.07
2019-02-12T10:49:52.239Z,1025.08
2019-02-12T10:50:52.294Z,1025.12
2019-02-12T10:51:52.346Z,1025.11
2019-02-12T10:52:52.400Z,1025.15
2019-02-12T10:53:52.455Z,1025.19
2019-02-12T10:54:52.513Z,1025.15
2019-02-12T10:55:52.565Z,1025.17
2019-02-12T10:56:52.623Z,1025.20
2019-02-12T10:57:52.674Z,1025.19
2019-02-12T10:58:52.876Z,1025.15
2019-02-12T10:59:52.780Z,1025.21
2019-02-12T11:00:52.835Z,1025.18
2019-02-12T11:01:52.891Z,1025.17
2019-02-12T11:02:52.945Z,1025.18
2019-02-12T11:03:53.000Z,1025.22
2019-02-12T11:04:53.053Z,1025.20
2019-02-12T11:05:53.109Z,1025.22
2019-02-12T11:06:53.163Z,1025.20
2019-02-12T11:07:53.217Z,1025.23
2019-02-12T11:08:53.273Z,1025.24
2019-02-12T11:09:53.327Z,1025.21
2019-02-12T11:10:53.380Z,1025.18
2019-02-12T11:11:53.438Z,1025.20
2019-02-12T11:12:53.491Z,1025.21
2019-02-12T11:13:53.545Z,1025.21
2019-02-12T11:14:53.598Z,1025.23
2019-02-12T11:15:53.653Z,1025.19
2019-02-12T11:16:53.709Z,1025.16
2019-02-12T11:17:53.764Z,1025.22
2019-02-12T11:18:53.817Z,1025.24
2019-02-12T11:19:53.873Z,1025.27
2019-02-12T11:20:53.934Z,1025.23
2019-02-12T11:21:53.982Z,1025.17
2019-02-12T11:22:54.036Z,1025.18
2019-02-12T11:23:54.089Z,1025.18
2019-02-12T11:24:54.145Z,1025.21
2019-02-12T11:25:54.201Z,1025.16
2019-02-12T11:26:54.257Z,1025.13
2019-02-12T11:27:54.308Z,1025.18
2019-02-12T11:28:54.365Z,1025.18
2019-02-12T11:29:54.416Z,1025.17
2019-02-12T11:30:54.471Z,1025.16
2019-02-12T11:31:54.526Z,1025.13
2019-02-12T11:32:54.582Z,1025.17
2019-02-12T11:33:54.635Z,1025.16
2019-02-12T11:34:54.690Z,1025.17
2019-02-12T11:35:54.742Z,1025.23
2019-02-12T11:36:54.798Z,1025.17
2019-02-12T11:37:54.854Z,1025.14
2019-02-12T11:38:54.906Z,1025.17
2019-02-12T11:39:54.960Z,1025.12
2019-02-12T11:40:55.016Z,1025.18
2019-02-12T11:41:55.070Z,1025.15
2019-02-12T11:42:55.124Z,1025.13
2019-02-12T11:43:55.179Z,1025.09
2019-02-12T11:44:55.235Z,1025.11
2019-02-12T11:45:55.290Z,1025.06
2019-02-12T11:46:55.343Z,1025.08
2019-02-12T11:47:55.400Z,1025.05
2019-02-12T11:48:55.461Z,1025.07
2019-02-12T11:49:55.507Z,1025.05
2019-02-12T11:50:55.562Z,1025.05
2019-02-12T11:51:55.617Z,1025.10
2019-02-12T11:52:55.670Z,1025.04
2019-02-12T11:53:55.740Z,1025.03
2019-02-12T11:54:55.779Z,1024.98
2019-02-12T11:55:55.835Z,1024.95
2019-02-12T11:56:55.889Z,1024.95
2019-02-12T11:57:55.943Z,1024.95
2019-02-12T11:58:56.001Z,1024.93
2019-02-12T11:59:56.057Z,1024.93
2019-02-12T12:00:56.107Z,1024.92
2019-02-12T12:01:56.161Z,1024.94
2019-02-12T12:02:56.214Z,1024.87
2019-02-12T12:03:56.291Z,1024.84
2019-02-12T12:04:56.327Z,1024.81
2019-02-12T12:05:56.383Z,1024.84